sensor_id;sensor_type;location;lat;lon;timestamp;P1;durP1;ratioP1;P2;durP2;ratioP2
41468;SDS011;27206;47.032;15.484;2023-08-01T00:02:20;5.20;;;3.00;;
41468;SDS011;27206;47.032;15.484;2023-08-01T00:04:45;4.22;;;2.90;;
41468;SDS011;27206;47.032;15.484;2023-08-01T00:07:11;4.93;;;3.10;;
41468;SDS011;27206;47.032;15.484;2023-08-01T00:09:37;7.20;;;3.30;;
41468;SDS011;27206;47.032;15.484;2023-08-01T00:12:02;5.70;;;2.92;;
41468;SDS011;27206;47.032;15.484;2023-08-01T00:14:28;6.82;;;3.00;;
41468;SDS011;27206;47.032;15.484;2023-08-01T00:16:54;4.28;;;2.90;;
41468;SDS011;27206;47.032;15.484;2023-08-01T00:19:19;4.05;;;2.63;;
41468;SDS011;27206;47.032;15.484;2023-08-01T00:21:45;4.18;;;2.53;;
41468;SDS011;27206;47.032;15.484;2023-08-01T00:24:11;4.68;;;2.70;;
41468;SDS011;27206;47.032;15.484;2023-08-01T00:26:37;6.07;;;2.97;;
41468;SDS011;27206;47.032;15.484;2023-08-01T00:29:03;5.65;;;3.10;;
41468;SDS011;27206;47.032;15.484;2023-08-01T00:31:28;4.65;;;2.80;;
41468;SDS011;27206;47.032;15.484;2023-08-01T00:33:54;4.82;;;3.20;;
41468;SDS011;27206;47.032;15.484;2023-08-01T00:36:20;4.75;;;3.00;;
41468;SDS011;27206;47.032;15.484;2023-08-01T00:38:45;5.20;;;2.72;;
41468;SDS011;27206;47.032;15.484;2023-08-01T00:41:12;5.90;;;3.00;;
41468;SDS011;27206;47.032;15.484;2023-08-01T00:43:37;7.78;;;3.50;;
41468;SDS011;27206;47.032;15.484;2023-08-01T00:46:04;4.38;;;3.00;;
41468;SDS011;27206;47.032;15.484;2023-08-01T00:48:31;5.15;;;3.00;;
41468;SDS011;27206;47.032;15.484;2023-08-01T00:50:57;4.10;;;2.75;;
41468;SDS011;27206;47.032;15.484;2023-08-01T00:53:25;6.07;;;2.90;;
41468;SDS011;27206;47.032;15.484;2023-08-01T00:55:54;6.65;;;2.92;;
41468;SDS011;27206;47.032;15.484;2023-08-01T00:58:20;4.07;;;2.90;;
41468;SDS011;27206;47.032;15.484;2023-08-01T01:00:46;4.60;;;2.83;;
41468;SDS011;27206;47.032;15.484;2023-08-01T01:03:13;4.63;;;2.97;;
41468;SDS011;27206;47.032;15.484;2023-08-01T01:05:40;7.03;;;3.38;;
41468;SDS011;27206;47.032;15.484;2023-08-01T01:08:31;7.25;;;2.80;;
41468;SDS011;27206;47.032;15.484;2023-08-01T01:10:57;5.35;;;3.15;;
41468;SDS011;27206;47.032;15.484;2023-08-01T01:13:23;9.93;;;3.10;;
41468;SDS011;27206;47.032;15.484;2023-08-01T01:15:49;6.03;;;3.08;;
41468;SDS011;27206;47.032;15.484;2023-08-01T01:18:14;5.38;;;3.22;;
41468;SDS011;27206;47.032;15.484;2023-08-01T01:20:40;4.35;;;2.92;;
41468;SDS011;27206;47.032;15.484;2023-08-01T01:23:05;5.47;;;2.95;;
41468;SDS011;27206;47.032;15.484;2023-08-01T01:25:33;4.38;;;2.72;;
41468;SDS011;27206;47.032;15.484;2023-08-01T01:27:59;4.75;;;2.92;;
41468;SDS011;27206;47.032;15.484;2023-08-01T01:30:28;5.03;;;3.30;;
41468;SDS011;27206;47.032;15.484;2023-08-01T01:32:55;5.35;;;2.70;;
41468;SDS011;27206;47.032;15.484;2023-08-01T01:35:21;5.47;;;3.10;;
41468;SDS011;27206;47.032;15.484;2023-08-01T01:37:46;5.10;;;2.90;;
41468;SDS011;27206;47.032;15.484;2023-08-01T01:40:12;4.45;;;3.05;;
41468;SDS011;27206;47.032;15.484;2023-08-01T01:42:38;6.43;;;3.10;;
41468;SDS011;27206;47.032;15.484;2023-08-01T01:45:03;5.72;;;3.20;;
41468;SDS011;27206;47.032;15.484;2023-08-01T01:47:29;4.85;;;3.15;;
41468;SDS011;27206;47.032;15.484;2023-08-01T01:49:55;6.90;;;3.70;;
41468;SDS011;27206;47.032;15.484;2023-08-01T01:52:21;4.65;;;2.83;;
41468;SDS011;27206;47.032;15.484;2023-08-01T01:54:46;5.55;;;3.50;;
41468;SDS011;27206;47.032;15.484;2023-08-01T01:57:12;6.53;;;3.50;;
41468;SDS011;27206;47.032;15.484;2023-08-01T01:59:38;7.15;;;3.17;;
41468;SDS011;27206;47.032;15.484;2023-08-01T02:02:03;5.72;;;3.08;;
41468;SDS011;27206;47.032;15.484;2023-08-01T02:04:29;7.00;;;3.58;;
41468;SDS011;27206;47.032;15.484;2023-08-01T02:06:55;6.72;;;3.17;;
41468;SDS011;27206;47.032;15.484;2023-08-01T02:09:21;5.45;;;3.33;;
41468;SDS011;27206;47.032;15.484;2023-08-01T02:11:46;6.57;;;3.15;;
41468;SDS011;27206;47.032;15.484;2023-08-01T02:14:13;5.63;;;3.13;;
41468;SDS011;27206;47.032;15.484;2023-08-01T02:16:38;8.27;;;3.28;;
41468;SDS011;27206;47.032;15.484;2023-08-01T02:19:04;3.95;;;2.95;;
41468;SDS011;27206;47.032;15.484;2023-08-01T02:21:30;4.78;;;3.10;;
41468;SDS011;27206;47.032;15.484;2023-08-01T02:23:55;5.30;;;3.13;;
41468;SDS011;27206;47.032;15.484;2023-08-01T02:26:21;5.90;;;3.53;;
41468;SDS011;27206;47.032;15.484;2023-08-01T02:28:49;6.10;;;2.97;;
41468;SDS011;27206;47.032;15.484;2023-08-01T02:31:15;7.18;;;3.70;;
41468;SDS011;27206;47.032;15.484;2023-08-01T02:33:41;8.75;;;3.42;;
41468;SDS011;27206;47.032;15.484;2023-08-01T02:36:06;4.68;;;3.25;;
41468;SDS011;27206;47.032;15.484;2023-08-01T02:38:32;5.07;;;2.92;;
41468;SDS011;27206;47.032;15.484;2023-08-01T02:40:58;5.82;;;3.15;;
41468;SDS011;27206;47.032;15.484;2023-08-01T02:43:23;5.28;;;3.33;;
41468;SDS011;27206;47.032;15.484;2023-08-01T02:45:49;7.93;;;3.35;;
41468;SDS011;27206;47.032;15.484;2023-08-01T02:48:15;8.60;;;3.55;;
41468;SDS011;27206;47.032;15.484;2023-08-01T02:50:41;6.13;;;3.03;;
41468;SDS011;27206;47.032;15.484;2023-08-01T02:53:06;5.55;;;3.17;;
41468;SDS011;27206;47.032;15.484;2023-08-01T02:55:32;5.72;;;3.25;;
41468;SDS011;27206;47.032;15.484;2023-08-01T02:57:58;3.90;;;3.08;;
41468;SDS011;27206;47.032;15.484;2023-08-01T03:00:23;5.45;;;3.33;;
41468;SDS011;27206;47.032;15.484;2023-08-01T03:02:50;6.57;;;3.45;;
41468;SDS011;27206;47.032;15.484;2023-08-01T03:05:16;5.45;;;3.15;;
41468;SDS011;27206;47.032;15.484;2023-08-01T03:07:42;6.53;;;3.20;;
41468;SDS011;27206;47.032;15.484;2023-08-01T03:10:07;5.28;;;3.03;;
41468;SDS011;27206;47.032;15.484;2023-08-01T03:12:34;5.35;;;3.47;;
41468;SDS011;27206;47.032;15.484;2023-08-01T03:15:00;4.40;;;3.10;;
41468;SDS011;27206;47.032;15.484;2023-08-01T03:17:26;7.38;;;3.45;;
41468;SDS011;27206;47.032;15.484;2023-08-01T03:19:51;4.60;;;3.13;;
41468;SDS011;27206;47.032;15.484;2023-08-01T03:22:17;5.80;;;3.08;;
41468;SDS011;27206;47.032;15.484;2023-08-01T03:24:43;5.55;;;3.47;;
41468;SDS011;27206;47.032;15.484;2023-08-01T03:27:09;5.32;;;3.05;;
41468;SDS011;27206;47.032;15.484;2023-08-01T03:29:34;9.93;;;3.33;;
41468;SDS011;27206;47.032;15.484;2023-08-01T03:32:00;5.40;;;3.15;;
41468;SDS011;27206;47.032;15.484;2023-08-01T03:34:26;6.50;;;3.10;;
41468;SDS011;27206;47.032;15.484;2023-08-01T03:36:51;5.60;;;3.20;;
41468;SDS011;27206;47.032;15.484;2023-08-01T03:39:17;5.40;;;3.28;;
41468;SDS011;27206;47.032;15.484;2023-08-01T03:41:43;5.40;;;3.42;;
41468;SDS011;27206;47.032;15.484;2023-08-01T03:44:08;5.32;;;3.40;;
41468;SDS011;27206;47.032;15.484;2023-08-01T03:46:34;7.03;;;3.30;;
41468;SDS011;27206;47.032;15.484;2023-08-01T03:49:00;5.03;;;3.20;;
41468;SDS011;27206;47.032;15.484;2023-08-01T03:51:25;6.30;;;3.70;;
41468;SDS011;27206;47.032;15.484;2023-08-01T03:53:51;5.03;;;3.50;;
41468;SDS011;27206;47.032;15.484;2023-08-01T03:56:17;5.40;;;3.20;;
41468;SDS011;27206;47.032;15.484;2023-08-01T03:58:42;7.55;;;3.70;;
41468;SDS011;27206;47.032;15.484;2023-08-01T04:01:08;5.03;;;3.40;;
41468;SDS011;27206;47.032;15.484;2023-08-01T04:03:33;5.65;;;3.50;;
41468;SDS011;27206;47.032;15.484;2023-08-01T04:05:59;5.13;;;3.25;;
41468;SDS011;27206;47.032;15.484;2023-08-01T04:08:25;8.02;;;3.92;;
41468;SDS011;27206;47.032;15.484;2023-08-01T04:10:50;7.80;;;3.80;;
41468;SDS011;27206;47.032;15.484;2023-08-01T04:13:16;6.68;;;3.30;;
41468;SDS011;27206;47.032;15.484;2023-08-01T04:15:42;6.78;;;3.45;;
41468;SDS011;27206;47.032;15.484;2023-08-01T04:18:07;5.38;;;3.30;;
41468;SDS011;27206;47.032;15.484;2023-08-01T04:20:33;9.20;;;3.50;;
41468;SDS011;27206;47.032;15.484;2023-08-01T04:22:58;9.20;;;3.55;;
41468;SDS011;27206;47.032;15.484;2023-08-01T04:25:24;4.95;;;2.95;;
41468;SDS011;27206;47.032;15.484;2023-08-01T04:27:51;6.30;;;3.50;;
41468;SDS011;27206;47.032;15.484;2023-08-01T04:30:17;7.68;;;3.55;;
41468;SDS011;27206;47.032;15.484;2023-08-01T04:32:43;6.22;;;3.40;;
41468;SDS011;27206;47.032;15.484;2023-08-01T04:35:09;5.25;;;3.42;;
41468;SDS011;27206;47.032;15.484;2023-08-01T04:37:34;6.60;;;3.40;;
41468;SDS011;27206;47.032;15.484;2023-08-01T04:40:00;6.45;;;3.80;;
41468;SDS011;27206;47.032;15.484;2023-08-01T04:42:26;8.27;;;3.95;;
41468;SDS011;27206;47.032;15.484;2023-08-01T04:44:52;9.75;;;3.72;;
41468;SDS011;27206;47.032;15.484;2023-08-01T04:47:18;5.80;;;4.40;;
41468;SDS011;27206;47.032;15.484;2023-08-01T04:49:44;5.57;;;3.78;;
41468;SDS011;27206;47.032;15.484;2023-08-01T04:52:10;5.93;;;3.53;;
41468;SDS011;27206;47.032;15.484;2023-08-01T04:54:35;6.78;;;3.80;;
41468;SDS011;27206;47.032;15.484;2023-08-01T04:57:01;5.20;;;3.90;;
41468;SDS011;27206;47.032;15.484;2023-08-01T04:59:27;6.90;;;3.80;;
41468;SDS011;27206;47.032;15.484;2023-08-01T05:01:52;6.05;;;3.63;;
41468;SDS011;27206;47.032;15.484;2023-08-01T05:04:18;5.93;;;3.90;;
41468;SDS011;27206;47.032;15.484;2023-08-01T05:06:43;6.65;;;3.72;;
41468;SDS011;27206;47.032;15.484;2023-08-01T05:09:09;5.30;;;3.50;;
41468;SDS011;27206;47.032;15.484;2023-08-01T05:11:35;5.22;;;3.45;;
41468;SDS011;27206;47.032;15.484;2023-08-01T05:14:00;5.35;;;3.63;;
41468;SDS011;27206;47.032;15.484;2023-08-01T05:16:26;6.38;;;3.90;;
41468;SDS011;27206;47.032;15.484;2023-08-01T05:18:52;12.75;;;4.05;;
41468;SDS011;27206;47.032;15.484;2023-08-01T05:21:17;7.55;;;3.80;;
41468;SDS011;27206;47.032;15.484;2023-08-01T05:23:43;9.55;;;4.00;;
41468;SDS011;27206;47.032;15.484;2023-08-01T05:26:08;7.93;;;3.60;;
41468;SDS011;27206;47.032;15.484;2023-08-01T05:28:34;9.10;;;4.20;;
41468;SDS011;27206;47.032;15.484;2023-08-01T05:30:59;6.43;;;4.07;;
41468;SDS011;27206;47.032;15.484;2023-08-01T05:33:25;6.60;;;3.58;;
41468;SDS011;27206;47.032;15.484;2023-08-01T05:35:51;4.90;;;3.35;;
41468;SDS011;27206;47.032;15.484;2023-08-01T05:38:16;8.35;;;3.97;;
41468;SDS011;27206;47.032;15.484;2023-08-01T05:40:42;7.07;;;3.58;;
41468;SDS011;27206;47.032;15.484;2023-08-01T05:43:07;8.80;;;3.90;;
41468;SDS011;27206;47.032;15.484;2023-08-01T05:45:36;6.20;;;3.92;;
41468;SDS011;27206;47.032;15.484;2023-08-01T05:48:02;6.05;;;3.85;;
41468;SDS011;27206;47.032;15.484;2023-08-01T05:50:28;7.18;;;3.80;;
41468;SDS011;27206;47.032;15.484;2023-08-01T05:52:54;7.22;;;4.00;;
41468;SDS011;27206;47.032;15.484;2023-08-01T05:55:19;8.07;;;4.07;;
41468;SDS011;27206;47.032;15.484;2023-08-01T05:57:46;5.88;;;3.90;;
41468;SDS011;27206;47.032;15.484;2023-08-01T06:00:14;9.70;;;4.13;;
41468;SDS011;27206;47.032;15.484;2023-08-01T06:02:40;7.93;;;3.85;;
41468;SDS011;27206;47.032;15.484;2023-08-01T06:05:05;8.18;;;3.90;;
41468;SDS011;27206;47.032;15.484;2023-08-01T06:07:31;7.53;;;3.60;;
41468;SDS011;27206;47.032;15.484;2023-08-01T06:09:57;9.10;;;3.45;;
41468;SDS011;27206;47.032;15.484;2023-08-01T06:12:22;10.10;;;3.80;;
41468;SDS011;27206;47.032;15.484;2023-08-01T06:14:48;6.45;;;4.05;;
41468;SDS011;27206;47.032;15.484;2023-08-01T06:17:14;6.13;;;3.88;;
41468;SDS011;27206;47.032;15.484;2023-08-01T06:19:40;7.45;;;4.10;;
41468;SDS011;27206;47.032;15.484;2023-08-01T06:22:06;7.80;;;4.15;;
41468;SDS011;27206;47.032;15.484;2023-08-01T06:24:32;7.78;;;3.70;;
41468;SDS011;27206;47.032;15.484;2023-08-01T06:26:57;9.57;;;4.53;;
41468;SDS011;27206;47.032;15.484;2023-08-01T06:29:23;5.50;;;4.00;;
41468;SDS011;27206;47.032;15.484;2023-08-01T06:31:50;5.60;;;4.00;;
41468;SDS011;27206;47.032;15.484;2023-08-01T06:34:15;7.25;;;3.53;;
41468;SDS011;27206;47.032;15.484;2023-08-01T06:36:41;9.55;;;3.72;;
41468;SDS011;27206;47.032;15.484;2023-08-01T06:39:07;6.25;;;3.90;;
41468;SDS011;27206;47.032;15.484;2023-08-01T06:41:33;6.95;;;3.80;;
41468;SDS011;27206;47.032;15.484;2023-08-01T06:43:58;7.82;;;3.40;;
41468;SDS011;27206;47.032;15.484;2023-08-01T06:46:24;6.40;;;3.75;;
41468;SDS011;27206;47.032;15.484;2023-08-01T06:48:50;5.82;;;3.40;;
41468;SDS011;27206;47.032;15.484;2023-08-01T06:51:15;7.30;;;3.83;;
41468;SDS011;27206;47.032;15.484;2023-08-01T06:53:41;7.43;;;3.85;;
41468;SDS011;27206;47.032;15.484;2023-08-01T06:56:07;7.22;;;3.58;;
41468;SDS011;27206;47.032;15.484;2023-08-01T06:58:33;5.38;;;3.90;;
41468;SDS011;27206;47.032;15.484;2023-08-01T07:00:58;7.53;;;3.75;;
41468;SDS011;27206;47.032;15.484;2023-08-01T07:03:24;8.35;;;4.05;;
41468;SDS011;27206;47.032;15.484;2023-08-01T07:05:49;6.32;;;4.13;;
41468;SDS011;27206;47.032;15.484;2023-08-01T07:08:15;5.68;;;3.83;;
41468;SDS011;27206;47.032;15.484;2023-08-01T07:10:41;6.55;;;3.50;;
41468;SDS011;27206;47.032;15.484;2023-08-01T07:13:07;7.97;;;3.47;;
41468;SDS011;27206;47.032;15.484;2023-08-01T07:15:32;5.80;;;3.40;;
41468;SDS011;27206;47.032;15.484;2023-08-01T07:17:59;7.50;;;4.22;;
41468;SDS011;27206;47.032;15.484;2023-08-01T07:20:25;5.85;;;4.03;;
41468;SDS011;27206;47.032;15.484;2023-08-01T07:22:51;8.07;;;3.97;;
41468;SDS011;27206;47.032;15.484;2023-08-01T07:25:16;4.95;;;3.50;;
41468;SDS011;27206;47.032;15.484;2023-08-01T07:27:44;8.63;;;4.22;;
41468;SDS011;27206;47.032;15.484;2023-08-01T07:30:09;8.25;;;3.60;;
41468;SDS011;27206;47.032;15.484;2023-08-01T07:32:36;5.57;;;3.75;;
41468;SDS011;27206;47.032;15.484;2023-08-01T07:35:05;5.95;;;3.30;;
41468;SDS011;27206;47.032;15.484;2023-08-01T07:37:32;5.55;;;3.55;;
41468;SDS011;27206;47.032;15.484;2023-08-01T07:39:58;6.22;;;3.67;;
41468;SDS011;27206;47.032;15.484;2023-08-01T07:42:24;5.05;;;3.50;;
41468;SDS011;27206;47.032;15.484;2023-08-01T07:44:50;5.35;;;3.47;;
41468;SDS011;27206;47.032;15.484;2023-08-01T07:47:15;7.22;;;3.22;;
41468;SDS011;27206;47.032;15.484;2023-08-01T07:49:41;6.43;;;3.33;;
41468;SDS011;27206;47.032;15.484;2023-08-01T07:52:07;9.43;;;3.50;;
41468;SDS011;27206;47.032;15.484;2023-08-01T07:54:32;5.80;;;3.17;;
41468;SDS011;27206;47.032;15.484;2023-08-01T07:56:58;5.95;;;3.28;;
41468;SDS011;27206;47.032;15.484;2023-08-01T07:59:24;6.68;;;3.72;;
41468;SDS011;27206;47.032;15.484;2023-08-01T08:01:49;7.10;;;3.20;;
41468;SDS011;27206;47.032;15.484;2023-08-01T08:04:15;4.97;;;3.22;;
41468;SDS011;27206;47.032;15.484;2023-08-01T08:06:40;5.78;;;3.10;;
41468;SDS011;27206;47.032;15.484;2023-08-01T08:09:06;5.93;;;3.45;;
41468;SDS011;27206;47.032;15.484;2023-08-01T08:11:32;5.28;;;3.50;;
41468;SDS011;27206;47.032;15.484;2023-08-01T08:13:58;7.03;;;3.25;;
41468;SDS011;27206;47.032;15.484;2023-08-01T08:16:24;6.03;;;3.50;;
41468;SDS011;27206;47.032;15.484;2023-08-01T08:18:50;6.43;;;3.45;;
41468;SDS011;27206;47.032;15.484;2023-08-01T08:21:16;5.05;;;3.50;;
41468;SDS011;27206;47.032;15.484;2023-08-01T08:23:43;6.07;;;3.28;;
41468;SDS011;27206;47.032;15.484;2023-08-01T08:26:08;5.93;;;2.97;;
41468;SDS011;27206;47.032;15.484;2023-08-01T08:28:34;6.75;;;3.15;;
41468;SDS011;27206;47.032;15.484;2023-08-01T08:31:00;5.53;;;3.67;;
41468;SDS011;27206;47.032;15.484;2023-08-01T08:33:27;8.57;;;3.47;;
41468;SDS011;27206;47.032;15.484;2023-08-01T08:35:53;6.43;;;3.17;;
41468;SDS011;27206;47.032;15.484;2023-08-01T08:38:19;6.03;;;3.30;;
41468;SDS011;27206;47.032;15.484;2023-08-01T08:40:52;5.97;;;3.67;;
41468;SDS011;27206;47.032;15.484;2023-08-01T08:43:26;4.00;;;3.03;;
41468;SDS011;27206;47.032;15.484;2023-08-01T08:45:53;6.50;;;3.47;;
41468;SDS011;27206;47.032;15.484;2023-08-01T08:48:22;4.47;;;2.90;;
41468;SDS011;27206;47.032;15.484;2023-08-01T08:50:49;4.85;;;3.30;;
41468;SDS011;27206;47.032;15.484;2023-08-01T08:53:16;5.07;;;3.55;;
41468;SDS011;27206;47.032;15.484;2023-08-01T08:55:42;4.35;;;3.03;;
41468;SDS011;27206;47.032;15.484;2023-08-01T08:58:08;6.63;;;3.15;;
41468;SDS011;27206;47.032;15.484;2023-08-01T09:00:37;4.18;;;3.00;;
41468;SDS011;27206;47.032;15.484;2023-08-01T09:03:03;4.03;;;2.75;;
41468;SDS011;27206;47.032;15.484;2023-08-01T09:05:30;5.18;;;2.90;;
41468;SDS011;27206;47.032;15.484;2023-08-01T09:07:59;4.53;;;2.90;;
41468;SDS011;27206;47.032;15.484;2023-08-01T09:10:30;4.20;;;2.65;;
41468;SDS011;27206;47.032;15.484;2023-08-01T09:12:56;3.92;;;2.90;;
41468;SDS011;27206;47.032;15.484;2023-08-01T09:15:22;4.28;;;2.67;;
41468;SDS011;27206;47.032;15.484;2023-08-01T09:17:50;4.20;;;2.72;;
41468;SDS011;27206;47.032;15.484;2023-08-01T09:20:17;4.28;;;2.90;;
41468;SDS011;27206;47.032;15.484;2023-08-01T09:22:46;4.63;;;2.88;;
41468;SDS011;27206;47.032;15.484;2023-08-01T09:25:12;4.30;;;2.60;;
41468;SDS011;27206;47.032;15.484;2023-08-01T09:27:38;4.63;;;2.85;;
41468;SDS011;27206;47.032;15.484;2023-08-01T09:30:05;4.38;;;2.97;;
41468;SDS011;27206;47.032;15.484;2023-08-01T09:32:32;4.28;;;2.92;;
41468;SDS011;27206;47.032;15.484;2023-08-01T09:34:59;4.28;;;3.00;;
41468;SDS011;27206;47.032;15.484;2023-08-01T09:37:37;5.05;;;3.10;;
41468;SDS011;27206;47.032;15.484;2023-08-01T09:40:07;4.80;;;3.00;;
41468;SDS011;27206;47.032;15.484;2023-08-01T09:42:42;6.47;;;3.10;;
41468;SDS011;27206;47.032;15.484;2023-08-01T09:45:12;4.53;;;3.15;;
41468;SDS011;27206;47.032;15.484;2023-08-01T09:47:43;4.40;;;3.40;;
41468;SDS011;27206;47.032;15.484;2023-08-01T09:50:10;6.47;;;3.10;;
41468;SDS011;27206;47.032;15.484;2023-08-01T09:52:36;4.47;;;3.00;;
41468;SDS011;27206;47.032;15.484;2023-08-01T09:55:02;4.80;;;3.22;;
41468;SDS011;27206;47.032;15.484;2023-08-01T09:57:31;4.43;;;3.33;;
41468;SDS011;27206;47.032;15.484;2023-08-01T09:59:58;4.47;;;3.17;;
41468;SDS011;27206;47.032;15.484;2023-08-01T10:02:24;6.45;;;3.25;;
41468;SDS011;27206;47.032;15.484;2023-08-01T10:04:53;5.25;;;2.80;;
41468;SDS011;27206;47.032;15.484;2023-08-01T10:07:23;6.32;;;3.17;;
41468;SDS011;27206;47.032;15.484;2023-08-01T10:09:51;5.85;;;2.95;;
41468;SDS011;27206;47.032;15.484;2023-08-01T10:12:22;5.30;;;2.95;;
41468;SDS011;27206;47.032;15.484;2023-08-01T10:14:50;4.00;;;3.00;;
41468;SDS011;27206;47.032;15.484;2023-08-01T10:17:17;6.80;;;3.50;;
41468;SDS011;27206;47.032;15.484;2023-08-01T10:19:44;6.93;;;3.20;;
41468;SDS011;27206;47.032;15.484;2023-08-01T10:22:10;6.35;;;3.40;;
41468;SDS011;27206;47.032;15.484;2023-08-01T10:24:36;6.55;;;3.60;;
41468;SDS011;27206;47.032;15.484;2023-08-01T10:27:12;4.38;;;3.10;;
41468;SDS011;27206;47.032;15.484;2023-08-01T10:32:27;4.85;;;3.10;;
41468;SDS011;27206;47.032;15.484;2023-08-01T10:35:03;4.95;;;3.20;;
41468;SDS011;27206;47.032;15.484;2023-08-01T10:37:39;6.35;;;3.30;;
41468;SDS011;27206;47.032;15.484;2023-08-01T10:40:06;8.80;;;3.50;;
41468;SDS011;27206;47.032;15.484;2023-08-01T10:42:42;10.45;;;3.72;;
41468;SDS011;27206;47.032;15.484;2023-08-01T10:45:24;5.78;;;3.30;;
41468;SDS011;27206;47.032;15.484;2023-08-01T10:47:50;7.05;;;3.47;;
41468;SDS011;27206;47.032;15.484;2023-08-01T10:50:16;5.82;;;3.17;;
41468;SDS011;27206;47.032;15.484;2023-08-01T10:52:43;4.65;;;3.20;;
41468;SDS011;27206;47.032;15.484;2023-08-01T10:55:09;5.07;;;3.55;;
41468;SDS011;27206;47.032;15.484;2023-08-01T10:57:39;6.55;;;3.42;;
41468;SDS011;27206;47.032;15.484;2023-08-01T11:00:15;6.18;;;3.10;;
41468;SDS011;27206;47.032;15.484;2023-08-01T11:02:48;4.18;;;3.17;;
41468;SDS011;27206;47.032;15.484;2023-08-01T11:05:17;5.78;;;3.42;;
41468;SDS011;27206;47.032;15.484;2023-08-01T11:07:52;5.38;;;3.20;;
41468;SDS011;27206;47.032;15.484;2023-08-01T11:10:23;7.47;;;3.80;;
41468;SDS011;27206;47.032;15.484;2023-08-01T11:12:50;6.35;;;3.45;;
41468;SDS011;27206;47.032;15.484;2023-08-01T11:15:16;5.93;;;3.47;;
41468;SDS011;27206;47.032;15.484;2023-08-01T11:17:42;7.10;;;3.83;;
41468;SDS011;27206;47.032;15.484;2023-08-01T11:20:12;7.55;;;3.88;;
41468;SDS011;27206;47.032;15.484;2023-08-01T11:22:48;5.32;;;3.72;;
41468;SDS011;27206;47.032;15.484;2023-08-01T11:25:14;5.82;;;3.80;;
41468;SDS011;27206;47.032;15.484;2023-08-01T11:27:40;5.45;;;4.07;;
41468;SDS011;27206;47.032;15.484;2023-08-01T11:30:06;5.13;;;3.50;;
41468;SDS011;27206;47.032;15.484;2023-08-01T11:32:36;5.10;;;3.67;;
41468;SDS011;27206;47.032;15.484;2023-08-01T11:35:02;9.00;;;3.65;;
41468;SDS011;27206;47.032;15.484;2023-08-01T11:37:28;6.35;;;3.85;;
41468;SDS011;27206;47.032;15.484;2023-08-01T11:39:55;7.03;;;3.88;;
41468;SDS011;27206;47.032;15.484;2023-08-01T11:42:21;6.18;;;3.63;;
41468;SDS011;27206;47.032;15.484;2023-08-01T11:44:47;4.93;;;3.42;;
41468;SDS011;27206;47.032;15.484;2023-08-01T11:47:13;5.82;;;4.25;;
41468;SDS011;27206;47.032;15.484;2023-08-01T11:49:45;10.30;;;4.00;;
41468;SDS011;27206;47.032;15.484;2023-08-01T11:52:27;4.95;;;3.70;;
41468;SDS011;27206;47.032;15.484;2023-08-01T11:54:53;8.13;;;3.75;;
41468;SDS011;27206;47.032;15.484;2023-08-01T11:57:20;5.47;;;3.95;;
41468;SDS011;27206;47.032;15.484;2023-08-01T11:59:50;8.18;;;3.83;;
41468;SDS011;27206;47.032;15.484;2023-08-01T12:02:23;5.35;;;3.53;;
41468;SDS011;27206;47.032;15.484;2023-08-01T12:04:54;5.70;;;3.67;;
41468;SDS011;27206;47.032;15.484;2023-08-01T12:07:20;5.30;;;3.85;;
41468;SDS011;27206;47.032;15.484;2023-08-01T12:09:58;5.63;;;3.90;;
41468;SDS011;27206;47.032;15.484;2023-08-01T12:12:28;6.55;;;3.85;;
41468;SDS011;27206;47.032;15.484;2023-08-01T12:14:54;7.63;;;3.70;;
41468;SDS011;27206;47.032;15.484;2023-08-01T12:17:20;6.43;;;3.60;;
41468;SDS011;27206;47.032;15.484;2023-08-01T12:19:47;4.65;;;3.33;;
41468;SDS011;27206;47.032;15.484;2023-08-01T12:22:13;8.02;;;3.53;;
41468;SDS011;27206;47.032;15.484;2023-08-01T12:24:39;5.25;;;3.45;;
41468;SDS011;27206;47.032;15.484;2023-08-01T12:27:06;5.72;;;3.47;;
41468;SDS011;27206;47.032;15.484;2023-08-01T12:29:33;6.07;;;3.65;;
41468;SDS011;27206;47.032;15.484;2023-08-01T12:31:58;5.35;;;3.90;;
41468;SDS011;27206;47.032;15.484;2023-08-01T12:34:24;6.38;;;3.90;;
41468;SDS011;27206;47.032;15.484;2023-08-01T12:36:50;7.00;;;3.78;;
41468;SDS011;27206;47.032;15.484;2023-08-01T12:39:15;7.05;;;4.72;;
41468;SDS011;27206;47.032;15.484;2023-08-01T12:41:41;11.60;;;4.80;;
41468;SDS011;27206;47.032;15.484;2023-08-01T12:44:07;7.78;;;5.18;;
41468;SDS011;27206;47.032;15.484;2023-08-01T12:46:32;7.97;;;4.53;;
41468;SDS011;27206;47.032;15.484;2023-08-01T12:48:58;5.50;;;4.40;;
41468;SDS011;27206;47.032;15.484;2023-08-01T12:51:24;6.10;;;4.20;;
41468;SDS011;27206;47.032;15.484;2023-08-01T12:53:49;9.07;;;4.88;;
41468;SDS011;27206;47.032;15.484;2023-08-01T12:56:15;7.43;;;5.00;;
41468;SDS011;27206;47.032;15.484;2023-08-01T12:58:41;2.17;;;1.05;;
41468;SDS011;27206;47.032;15.484;2023-08-01T13:01:06;2.70;;;1.10;;
41468;SDS011;27206;47.032;15.484;2023-08-01T13:03:32;4.13;;;1.40;;
41468;SDS011;27206;47.032;15.484;2023-08-01T13:05:58;4.95;;;1.13;;
41468;SDS011;27206;47.032;15.484;2023-08-01T13:08:24;1.65;;;0.82;;
41468;SDS011;27206;47.032;15.484;2023-08-01T13:10:49;2.38;;;1.00;;
41468;SDS011;27206;47.032;15.484;2023-08-01T13:13:15;1.50;;;0.50;;
41468;SDS011;27206;47.032;15.484;2023-08-01T13:15:41;2.63;;;0.90;;
41468;SDS011;27206;47.032;15.484;2023-08-01T13:18:07;4.88;;;1.30;;
41468;SDS011;27206;47.032;15.484;2023-08-01T13:20:34;1.83;;;0.70;;
41468;SDS011;27206;47.032;15.484;2023-08-01T13:23:01;3.72;;;0.80;;
41468;SDS011;27206;47.032;15.484;2023-08-01T13:25:27;2.58;;;1.00;;
41468;SDS011;27206;47.032;15.484;2023-08-01T13:27:54;3.00;;;1.00;;
41468;SDS011;27206;47.032;15.484;2023-08-01T13:30:20;2.92;;;0.80;;
41468;SDS011;27206;47.032;15.484;2023-08-01T13:32:46;2.40;;;1.00;;
41468;SDS011;27206;47.032;15.484;2023-08-01T13:35:11;1.35;;;0.70;;
41468;SDS011;27206;47.032;15.484;2023-08-01T13:37:37;3.47;;;0.70;;
41468;SDS011;27206;47.032;15.484;2023-08-01T13:40:03;2.53;;;1.00;;
41468;SDS011;27206;47.032;15.484;2023-08-01T13:42:30;4.38;;;1.33;;
41468;SDS011;27206;47.032;15.484;2023-08-01T13:44:56;4.18;;;1.10;;
41468;SDS011;27206;47.032;15.484;2023-08-01T13:47:21;3.67;;;1.10;;
41468;SDS011;27206;47.032;15.484;2023-08-01T13:49:47;2.53;;;1.02;;
41468;SDS011;27206;47.032;15.484;2023-08-01T13:52:13;2.05;;;0.98;;
41468;SDS011;27206;47.032;15.484;2023-08-01T13:54:38;3.35;;;1.08;;
41468;SDS011;27206;47.032;15.484;2023-08-01T13:57:04;3.50;;;1.25;;
41468;SDS011;27206;47.032;15.484;2023-08-01T13:59:30;3.10;;;1.25;;
41468;SDS011;27206;47.032;15.484;2023-08-01T14:01:56;3.30;;;1.23;;
41468;SDS011;27206;47.032;15.484;2023-08-01T14:04:22;3.28;;;1.10;;
41468;SDS011;27206;47.032;15.484;2023-08-01T14:06:47;8.65;;;2.00;;
41468;SDS011;27206;47.032;15.484;2023-08-01T14:09:13;4.80;;;1.20;;
41468;SDS011;27206;47.032;15.484;2023-08-01T14:11:39;4.05;;;1.20;;
41468;SDS011;27206;47.032;15.484;2023-08-01T14:14:05;5.70;;;1.48;;
41468;SDS011;27206;47.032;15.484;2023-08-01T14:16:30;6.70;;;2.05;;
41468;SDS011;27206;47.032;15.484;2023-08-01T14:18:56;7.38;;;1.83;;
41468;SDS011;27206;47.032;15.484;2023-08-01T14:21:23;3.30;;;1.17;;
41468;SDS011;27206;47.032;15.484;2023-08-01T14:23:48;9.30;;;1.50;;
41468;SDS011;27206;47.032;15.484;2023-08-01T14:26:14;2.83;;;1.10;;
41468;SDS011;27206;47.032;15.484;2023-08-01T14:28:40;6.22;;;1.60;;
41468;SDS011;27206;47.032;15.484;2023-08-01T14:31:05;4.28;;;1.45;;
41468;SDS011;27206;47.032;15.484;2023-08-01T14:33:32;2.05;;;1.10;;